Hauptseite
METAR-TAF:

METAR-TAF

Flughäfen :

Flughafen Adana

Adana, Türkei

Breite: 36-59N, Länge: 035-18E, Höhe: 20 m

Beobachtung

Neuester Wetterbericht von vor 30 Minuten, um 19:20 UTC
Wind 4 kt aus Südost, variierte zwischen Ost/Südost und Süd
Temperatur 29°C
Luftfeuchtigkeit 89%
Luftdruck 1005 hPa
Sichtweite 10 km oder mehr
Leicht bewölkt in der Höhe von 1700 ft

METAR: LTAF 121920Z 14004KT 110V170 9999 FEW017 29/27 Q1005 NOSIG RMK RWY23 17005KT 140V200 2ST017

Zeit: 22:50 (19:50 UTC)


TAF: fehlend

Wetterbeobachtungen und Prognosen von mehr als 4000 Flughäfen (METAR und TAF Bericht).

Die verfügbaren Stationen werden durch gelbe und rote Markierungen auf der Karte dargestellt.

Führen Sie die Maus auf sie, um den Namen der Station zu sehen.

Darauf klicken, um die Beobachtung von Wetterbeobachtungen und Prognosen zu sehen.

Um die Karte zu ändern : klicken Sie auf den grünen Tasten mit einem schwarzen Kreuz Zum Vergrößern, auf den grünen Button mit einem Gedankenstrich zu verkleinern, oder auf die grünen Pfeile für benachbarte Karten.


METAR-TAF: